Time;durP1;ratioP1;P1;durP2;ratioP2;P2;SDS_P1;SDS_P2;PMS_P1;PMS_P2;Temp;Humidity;BMP_temperature;BMP_pressure;BME280_temperature;BME280_humidity;BME280_pressure;Samples;Min_cycle;Max_cycle;Signal;HPM_P1;HPM_P2
2022/01/27 00:00:49;;;;;;;16.07;8.73;;;3.10;99.90;;;;;;4985648;28;20187;-78
2022/01/27 00:03:35;;;;;;;16.27;9.10;;;3.20;99.90;;;;;;4993336;28;20203;-78
2022/01/27 00:06:06;;;;;;;15.37;8.50;;;3.20;99.90;;;;;;4993921;28;20747;-78
2022/01/27 00:08:42;;;;;;;15.37;8.90;;;3.10;99.90;;;;;;4994014;28;20204;-79
2022/01/27 00:11:12;;;;;;;16.37;9.33;;;3.20;99.90;;;;;;4993877;28;20479;-77
2022/01/27 00:13:54;;;;;;;15.17;8.17;;;3.20;99.90;;;;;;4974385;28;20180;-78
2022/01/27 00:16:26;;;;;;;15.00;8.57;;;3.10;99.90;;;;;;4988922;28;20310;-78
2022/01/27 00:18:53;;;;;;;17.83;9.30;;;3.10;99.90;;;;;;4989550;28;20176;-76
2022/01/27 00:21:22;;;;;;;15.20;7.97;;;3.20;99.90;;;;;;4985664;28;20189;-77
2022/01/27 00:23:48;;;;;;;14.57;8.03;;;3.20;99.90;;;;;;4988593;28;20612;-78
2022/01/27 00:26:16;;;;;;;14.17;7.97;;;3.20;99.90;;;;;;4988386;28;20196;-77
2022/01/27 00:28:43;;;;;;;15.33;8.23;;;3.20;99.90;;;;;;4988207;28;20172;-77
2022/01/27 00:31:09;;;;;;;16.77;8.53;;;3.20;99.90;;;;;;4987094;28;20291;-78
2022/01/27 00:33:35;;;;;;;14.57;7.57;;;3.20;99.90;;;;;;4988202;28;20188;-77
2022/01/27 00:36:02;;;;;;;14.30;7.20;;;3.20;99.90;;;;;;4970018;28;20944;-75
2022/01/27 00:38:30;;;;;;;12.50;7.20;;;3.30;99.90;;;;;;4987394;28;20704;-76
2022/01/27 00:40:56;;;;;;;11.97;7.23;;;3.30;99.90;;;;;;4988028;28;20655;-77
2022/01/27 00:43:22;;;;;;;11.00;6.60;;;3.30;99.90;;;;;;4971515;28;20235;-76
2022/01/27 00:45:48;;;;;;;11.07;6.37;;;3.40;99.90;;;;;;4989603;28;20220;-75
2022/01/27 00:48:17;;;;;;;10.53;5.60;;;3.40;99.90;;;;;;4991534;28;20216;-78
2022/01/27 00:50:47;;;;;;;9.77;5.20;;;3.40;99.90;;;;;;4991411;28;20246;-77
2022/01/27 00:53:42;;;;;;;9.70;5.40;;;3.40;99.90;;;;;;4992697;28;20176;-80
2022/01/27 00:56:13;;;;;;;8.63;4.83;;;3.40;99.90;;;;;;4991056;28;20620;-78
2022/01/27 00:58:55;;;;;;;8.37;4.20;;;3.40;99.90;;;;;;4991728;28;20175;-78
2022/01/27 01:01:25;;;;;;;7.93;5.00;;;3.50;99.90;;;;;;4973301;28;20207;-78
2022/01/27 01:03:55;;;;;;;6.60;4.07;;;3.40;99.90;;;;;;4991754;28;20173;-78
2022/01/27 01:12:13;;;;;;;6.97;4.23;;;3.50;99.90;;;;;;4992817;28;20180;-78
2022/01/27 01:17:15;;;;;;;6.37;4.43;;;3.50;99.90;;;;;;4992003;28;20658;-78
2022/01/27 01:19:59;;;;;;;6.00;4.03;;;3.50;99.90;;;;;;4993458;28;20180;-78
2022/01/27 01:33:09;;;;;;;4.87;3.20;;;3.50;99.90;;;;;;4992486;28;20275;-78
2022/01/27 01:38:14;;;;;;;5.87;3.37;;;3.50;99.90;;;;;;4993251;28;20202;-76
2022/01/27 01:40:40;;;;;;;5.13;3.23;;;3.50;99.90;;;;;;4975294;28;20195;-78
2022/01/27 01:43:06;;;;;;;8.77;4.47;;;3.50;99.90;;;;;;4992454;28;20188;-79
2022/01/27 01:45:35;;;;;;;5.53;3.77;;;3.50;99.90;;;;;;4992509;28;20696;-78
2022/01/27 01:48:01;;;;;;;5.37;3.50;;;3.50;99.90;;;;;;4992013;28;20216;-79
2022/01/27 01:50:27;;;;;;;4.27;3.30;;;3.50;99.90;;;;;;4992651;28;20195;-78
2022/01/27 01:52:53;;;;;;;9.00;4.50;;;3.50;99.90;;;;;;4993201;28;20180;-78
2022/01/27 01:55:18;;;;;;;7.67;3.87;;;3.50;99.90;;;;;;4993284;28;20180;-78
2022/01/27 01:57:44;;;;;;;5.50;3.60;;;3.50;99.90;;;;;;4993027;28;20263;-76
2022/01/27 02:00:12;;;;;;;5.67;3.50;;;3.50;99.90;;;;;;4992048;28;20196;-77
2022/01/27 02:02:38;;;;;;;6.33;3.57;;;3.50;99.90;;;;;;4975259;28;20184;-79
2022/01/27 02:05:06;;;;;;;3.90;3.20;;;3.50;99.90;;;;;;4991915;28;20214;-77
2022/01/27 02:07:52;;;;;;;5.73;3.80;;;3.50;99.90;;;;;;4992982;28;20215;-79
2022/01/27 02:18:25;;;;;;;5.37;2.93;;;3.50;99.90;;;;;;4992010;28;20222;-79
2022/01/27 02:20:51;;;;;;;6.03;3.03;;;3.50;99.90;;;;;;4991760;28;20192;-77
2022/01/27 02:23:17;;;;;;;4.03;2.93;;;3.50;99.90;;;;;;4991637;28;20267;-79
2022/01/27 02:25:43;;;;;;;5.00;3.00;;;3.50;99.90;;;;;;4974248;28;20801;-77
2022/01/27 02:28:08;;;;;;;6.27;3.53;;;3.60;99.90;;;;;;4992242;28;20235;-76
2022/01/27 02:30:34;;;;;;;5.20;3.13;;;3.50;99.90;;;;;;4991849;28;20196;-78
2022/01/27 02:32:59;;;;;;;6.27;3.60;;;3.50;99.90;;;;;;4992633;28;20195;-77
2022/01/27 02:35:29;;;;;;;5.93;3.67;;;3.50;99.90;;;;;;4974012;28;20235;-78
2022/01/27 02:37:55;;;;;;;5.90;3.23;;;3.50;99.90;;;;;;4972502;28;20674;-77
2022/01/27 02:40:26;;;;;;;5.20;3.40;;;3.50;99.90;;;;;;4992018;28;20188;-77
2022/01/27 02:42:53;;;;;;;6.10;3.40;;;3.50;99.90;;;;;;4974144;28;20185;-77
2022/01/27 02:45:35;;;;;;;6.17;4.00;;;3.50;99.90;;;;;;4973527;28;20185;-79
2022/01/27 02:48:01;;;;;;;7.40;4.27;;;3.50;99.90;;;;;;4973787;28;20282;-77
2022/01/27 02:50:26;;;;;;;6.97;4.50;;;3.50;99.90;;;;;;4973618;28;20184;-77
2022/01/27 02:52:52;;;;;;;5.27;3.57;;;3.50;99.90;;;;;;4991990;28;20196;-76
2022/01/27 02:55:18;;;;;;;7.20;4.30;;;3.50;99.90;;;;;;4974071;28;20184;-78
2022/01/27 02:57:43;;;;;;;6.97;4.03;;;3.60;99.90;;;;;;4991505;28;20184;-79
2022/01/27 03:00:09;;;;;;;7.97;4.70;;;3.50;99.90;;;;;;4991368;28;20199;-80
2022/01/27 03:02:36;;;;;;;8.30;4.67;;;3.50;99.90;;;;;;4991281;28;20188;-80
2022/01/27 03:05:02;;;;;;;7.70;4.73;;;3.60;99.90;;;;;;4989811;28;20196;-79
2022/01/27 03:07:28;;;;;;;6.30;4.70;;;3.60;99.90;;;;;;4990149;28;20329;-79
2022/01/27 03:09:56;;;;;;;8.93;4.87;;;3.50;99.90;;;;;;4992048;28;20999;-78
2022/01/27 03:12:27;;;;;;;8.40;5.13;;;3.50;99.90;;;;;;4974588;28;20642;-76
2022/01/27 03:14:53;;;;;;;8.40;5.23;;;3.50;99.90;;;;;;4991217;28;20184;-76
2022/01/27 03:17:18;;;;;;;8.83;5.67;;;3.50;99.90;;;;;;4974128;28;20754;-78
2022/01/27 03:19:44;;;;;;;9.27;6.10;;;3.50;99.90;;;;;;4991200;28;20224;-78
2022/01/27 03:22:10;;;;;;;9.73;6.23;;;3.50;99.90;;;;;;4991149;28;20181;-78
2022/01/27 03:24:37;;;;;;;11.60;6.33;;;3.60;99.90;;;;;;4990858;28;20184;-78
2022/01/27 03:27:06;;;;;;;12.00;6.83;;;3.50;99.90;;;;;;4990653;28;20557;-80
2022/01/27 03:29:32;;;;;;;12.27;7.07;;;3.60;99.90;;;;;;4990216;28;20176;-77
2022/01/27 03:31:58;;;;;;;12.33;7.30;;;3.60;99.90;;;;;;4990921;28;20243;-76
2022/01/27 03:34:23;;;;;;;13.17;7.53;;;3.60;99.90;;;;;;4991521;28;20231;-75
2022/01/27 03:36:49;;;;;;;12.40;7.70;;;3.60;99.90;;;;;;4975835;28;20203;-78
2022/01/27 03:39:18;;;;;;;12.53;7.63;;;3.60;99.90;;;;;;4994154;28;20199;-78
2022/01/27 03:41:51;;;;;;;13.53;7.57;;;3.50;99.90;;;;;;4974591;28;20203;-77
2022/01/27 03:44:21;;;;;;;13.80;8.13;;;3.50;99.90;;;;;;4990983;28;20196;-78
2022/01/27 03:46:48;;;;;;;13.03;8.27;;;3.50;99.90;;;;;;4992342;28;20224;-79
2022/01/27 03:49:14;;;;;;;14.50;9.13;;;3.50;99.90;;;;;;4974914;28;21167;-76
2022/01/27 03:51:40;;;;;;;14.73;9.23;;;3.60;99.90;;;;;;4991153;28;20180;-76
2022/01/27 03:54:05;;;;;;;16.03;8.90;;;3.60;99.90;;;;;;4972434;28;20181;-77
2022/01/27 03:56:31;;;;;;;16.20;9.47;;;3.60;99.90;;;;;;4988451;28;20211;-76
2022/01/27 03:58:57;;;;;;;14.30;8.63;;;3.60;99.90;;;;;;4971566;28;20184;-76
2022/01/27 04:01:22;;;;;;;17.57;10.23;;;3.50;99.90;;;;;;4976178;28;20188;-79
2022/01/27 04:03:48;;;;;;;19.83;10.47;;;3.50;99.90;;;;;;4994793;28;20187;-79
2022/01/27 04:06:20;;;;;;;19.23;11.17;;;3.50;99.90;;;;;;4995130;28;20287;-76
2022/01/27 04:08:45;;;;;;;18.93;10.67;;;3.50;99.90;;;;;;4977738;28;20196;-78
2022/01/27 04:11:11;;;;;;;21.70;11.57;;;3.50;99.90;;;;;;4976929;28;20207;-77
2022/01/27 04:13:37;;;;;;;19.23;11.33;;;3.40;99.90;;;;;;4995395;28;20244;-75
2022/01/27 04:16:04;;;;;;;23.00;12.73;;;3.50;99.90;;;;;;4994635;28;20209;-78
2022/01/27 04:18:30;;;;;;;19.97;11.57;;;3.40;99.90;;;;;;4992956;28;20229;-77
2022/01/27 04:20:56;;;;;;;20.20;11.27;;;3.50;99.90;;;;;;4994705;28;20191;-78
2022/01/27 04:23:22;;;;;;;21.53;11.80;;;3.50;99.90;;;;;;4976876;28;20176;-78
2022/01/27 04:25:48;;;;;;;20.47;12.07;;;3.40;99.90;;;;;;4994546;28;20249;-77
2022/01/27 04:28:20;;;;;;;23.90;13.57;;;3.40;99.90;;;;;;4975685;28;20429;-78
2022/01/27 04:30:46;;;;;;;25.63;12.97;;;3.40;99.90;;;;;;4976781;28;20180;-79
2022/01/27 04:33:12;;;;;;;24.37;13.53;;;3.40;99.90;;;;;;4994102;28;20272;-75
2022/01/27 04:35:43;;;;;;;24.40;13.07;;;3.40;99.90;;;;;;4994598;28;20640;-78
2022/01/27 04:40:50;;;;;;;23.67;13.70;;;3.40;99.90;;;;;;4994691;28;20227;-79
2022/01/27 04:46:07;;;;;;;23.40;13.70;;;3.50;99.90;;;;;;4993029;28;20214;-77
2022/01/27 04:48:39;;;;;;;24.20;13.63;;;3.40;99.90;;;;;;4993345;28;20303;-78
2022/01/27 04:51:12;;;;;;;25.90;14.00;;;3.30;99.90;;;;;;4976931;28;20219;-76
2022/01/27 04:53:47;;;;;;;29.40;14.97;;;3.40;99.90;;;;;;4993635;28;20172;-76
2022/01/27 04:56:15;;;;;;;27.30;14.40;;;3.30;99.90;;;;;;4992571;28;20672;-77
2022/01/27 04:58:44;;;;;;;25.67;14.83;;;3.30;99.90;;;;;;4976473;28;20203;-79
2022/01/27 05:01:09;;;;;;;24.37;13.87;;;3.30;99.90;;;;;;4976382;28;20283;-80
2022/01/27 05:03:49;;;;;;;28.53;14.70;;;3.30;99.90;;;;;;4994154;28;20211;-78
2022/01/27 05:06:15;;;;;;;25.33;13.10;;;3.30;99.90;;;;;;4994294;28;20648;-76
2022/01/27 05:08:42;;;;;;;22.93;12.93;;;3.30;99.90;;;;;;4974699;28;20236;-76
2022/01/27 05:11:22;;;;;;;22.97;13.23;;;3.30;99.90;;;;;;4972326;28;20190;-78
2022/01/27 05:14:03;;;;;;;24.07;13.93;;;3.30;99.90;;;;;;4991580;28;20243;-76
2022/01/27 05:16:29;;;;;;;28.47;14.13;;;3.20;99.90;;;;;;4973485;28;20220;-78
2022/01/27 05:18:55;;;;;;;27.57;14.67;;;3.20;99.90;;;;;;4991416;28;20189;-77
2022/01/27 05:21:21;;;;;;;26.07;14.13;;;3.20;99.90;;;;;;4990151;28;20263;-77
2022/01/27 05:23:47;;;;;;;25.80;14.33;;;3.20;99.90;;;;;;4990881;28;21265;-77
2022/01/27 05:26:12;;;;;;;27.47;13.03;;;3.20;99.90;;;;;;4993168;28;20212;-79
2022/01/27 05:28:38;;;;;;;26.97;14.13;;;3.20;99.90;;;;;;4984225;28;20219;-78
2022/01/27 05:31:05;;;;;;;27.03;14.37;;;3.10;99.90;;;;;;5006055;28;20188;-77
2022/01/27 05:33:31;;;;;;;25.53;13.90;;;3.20;99.90;;;;;;4993564;28;20199;-76
2022/01/27 05:35:57;;;;;;;28.37;14.43;;;3.10;99.90;;;;;;4974857;28;20216;-78
2022/01/27 05:38:23;;;;;;;21.63;12.57;;;3.10;99.90;;;;;;4991879;28;20576;-78
2022/01/27 05:40:48;;;;;;;21.90;12.00;;;3.10;99.90;;;;;;4974713;28;20188;-76
2022/01/27 05:43:14;;;;;;;21.83;12.00;;;3.00;99.90;;;;;;4992018;28;20232;-78
2022/01/27 05:45:39;;;;;;;22.07;12.30;;;3.00;99.90;;;;;;4974524;28;20243;-78
2022/01/27 05:48:06;;;;;;;24.40;11.83;;;3.00;99.90;;;;;;4992617;28;20234;-78
2022/01/27 05:50:32;;;;;;;27.00;14.40;;;3.00;99.90;;;;;;4992543;28;20388;-76
2022/01/27 05:52:58;;;;;;;22.17;11.80;;;3.00;99.90;;;;;;4992118;28;20184;-79
2022/01/27 05:55:24;;;;;;;21.97;11.90;;;3.00;99.90;;;;;;4974834;28;20192;-80
2022/01/27 05:57:49;;;;;;;25.53;11.40;;;3.00;99.90;;;;;;4989715;28;20199;-75
2022/01/27 06:00:16;;;;;;;21.27;11.67;;;3.00;99.90;;;;;;4989035;28;21193;-79
2022/01/27 06:02:41;;;;;;;20.87;11.23;;;3.00;99.90;;;;;;4989182;28;20403;-78
2022/01/27 06:05:07;;;;;;;21.50;11.13;;;3.00;99.90;;;;;;4990051;28;20193;-78
2022/01/27 06:07:33;;;;;;;27.80;12.53;;;3.00;99.90;;;;;;4972533;28;20223;-79
2022/01/27 06:09:58;;;;;;;21.47;11.27;;;3.00;99.90;;;;;;4972167;28;20180;-79
2022/01/27 06:12:25;;;;;;;22.17;11.17;;;3.00;99.90;;;;;;4989717;28;20232;-78
2022/01/27 06:14:51;;;;;;;23.43;12.20;;;3.00;99.90;;;;;;4990640;28;20223;-78
2022/01/27 06:17:16;;;;;;;18.00;9.87;;;3.00;99.90;;;;;;4988699;28;20228;-77
2022/01/27 06:19:45;;;;;;;19.80;10.40;;;3.00;99.90;;;;;;4986872;28;20192;-77
2022/01/27 06:22:12;;;;;;;19.90;10.93;;;3.00;99.90;;;;;;4991466;28;20220;-80
2022/01/27 06:24:44;;;;;;;21.20;11.03;;;3.00;99.90;;;;;;4991636;28;20199;-78
2022/01/27 06:27:11;;;;;;;18.60;10.50;;;3.00;99.90;;;;;;4990314;28;20207;-77
2022/01/27 06:29:37;;;;;;;18.63;10.33;;;3.00;99.90;;;;;;4992142;28;20188;-78
2022/01/27 06:32:03;;;;;;;22.80;11.10;;;3.00;99.90;;;;;;4974525;28;20199;-79
2022/01/27 06:34:29;;;;;;;19.83;11.43;;;3.00;99.90;;;;;;4992312;28;20268;-79
2022/01/27 06:36:56;;;;;;;19.97;11.20;;;3.00;99.90;;;;;;4991132;28;20212;-77
2022/01/27 06:39:22;;;;;;;19.53;10.87;;;3.00;99.90;;;;;;4991715;28;20195;-79
2022/01/27 06:41:48;;;;;;;21.57;11.03;;;3.00;99.90;;;;;;4971423;28;20184;-79
2022/01/27 06:44:13;;;;;;;20.97;10.80;;;3.00;99.90;;;;;;4990485;28;20184;-79
2022/01/27 06:46:39;;;;;;;20.37;10.53;;;3.10;99.90;;;;;;4991283;28;20255;-79
2022/01/27 06:49:05;;;;;;;22.03;10.77;;;3.00;99.90;;;;;;4994362;28;20227;-78
2022/01/27 06:51:32;;;;;;;22.30;12.27;;;3.00;99.90;;;;;;5004762;28;20219;-77
2022/01/27 06:53:59;;;;;;;20.70;11.40;;;3.00;99.90;;;;;;5001650;28;20251;-77
2022/01/27 06:56:27;;;;;;;18.53;9.87;;;3.00;99.90;;;;;;5004017;28;20196;-78
2022/01/27 06:58:54;;;;;;;21.27;11.13;;;3.00;99.90;;;;;;5003161;28;20188;-76
2022/01/27 07:01:20;;;;;;;21.80;11.67;;;3.00;99.90;;;;;;5001565;28;20196;-76
2022/01/27 07:03:45;;;;;;;23.47;10.57;;;3.00;99.90;;;;;;5002558;28;20192;-78
2022/01/27 07:06:12;;;;;;;20.93;10.90;;;3.00;99.90;;;;;;5000169;28;20649;-76
2022/01/27 07:08:38;;;;;;;20.63;11.63;;;3.00;99.90;;;;;;4991752;28;20306;-77
2022/01/27 07:11:04;;;;;;;20.60;11.07;;;3.00;99.90;;;;;;4991998;28;20196;-78
2022/01/27 07:13:29;;;;;;;22.57;12.20;;;2.90;99.90;;;;;;4991240;28;20180;-78
2022/01/27 07:15:56;;;;;;;21.93;10.73;;;2.90;99.90;;;;;;4991485;28;20219;-78
2022/01/27 07:18:22;;;;;;;24.13;12.27;;;2.90;99.90;;;;;;4990709;28;20192;-76
2022/01/27 07:20:47;;;;;;;23.80;12.40;;;2.90;99.90;;;;;;4973363;28;20188;-76
2022/01/27 07:23:13;;;;;;;26.10;11.77;;;2.90;99.90;;;;;;4991947;28;20196;-79
2022/01/27 07:25:39;;;;;;;20.83;10.33;;;2.90;99.90;;;;;;4973215;28;21185;-79
2022/01/27 07:28:04;;;;;;;19.80;11.47;;;2.90;99.90;;;;;;4973926;28;20219;-79
2022/01/27 07:30:30;;;;;;;23.13;10.70;;;3.00;99.90;;;;;;4989734;28;20195;-78
2022/01/27 07:32:56;;;;;;;19.97;11.20;;;3.00;99.90;;;;;;4990532;28;20192;-77
2022/01/27 07:35:21;;;;;;;21.27;11.00;;;3.00;99.90;;;;;;4971818;28;20271;-77
2022/01/27 07:37:47;;;;;;;20.60;10.27;;;2.90;99.90;;;;;;4969821;28;20185;-76
2022/01/27 07:40:13;;;;;;;24.67;13.17;;;3.00;99.90;;;;;;4986176;28;20227;-77
2022/01/27 07:42:39;;;;;;;22.13;10.63;;;2.90;99.90;;;;;;4986916;28;20184;-76
2022/01/27 07:45:06;;;;;;;23.27;11.70;;;3.00;99.90;;;;;;4987311;28;20250;-76
2022/01/27 07:47:32;;;;;;;18.87;10.87;;;3.00;99.90;;;;;;4986618;28;20315;-75
2022/01/27 07:49:57;;;;;;;19.57;10.67;;;3.00;99.90;;;;;;4969170;28;20275;-78
2022/01/27 07:52:23;;;;;;;23.40;11.60;;;3.00;99.90;;;;;;4986771;28;20227;-75
2022/01/27 07:54:49;;;;;;;19.97;11.13;;;3.00;99.90;;;;;;4967785;28;20192;-76
2022/01/27 07:57:15;;;;;;;21.60;11.23;;;3.10;99.90;;;;;;4984596;28;20727;-77
2022/01/27 07:59:41;;;;;;;20.40;10.43;;;3.10;99.90;;;;;;4984323;28;20184;-75
2022/01/27 08:02:07;;;;;;;18.20;10.80;;;3.10;99.90;;;;;;4983068;28;20198;-76
2022/01/27 08:04:33;;;;;;;19.93;10.33;;;3.10;99.90;;;;;;4984970;28;20232;-75
2022/01/27 08:07:00;;;;;;;18.33;9.87;;;3.10;99.90;;;;;;4988487;28;20235;-77
2022/01/27 08:09:26;;;;;;;21.77;10.53;;;3.10;99.90;;;;;;4970973;28;20188;-78
2022/01/27 08:11:52;;;;;;;21.50;11.57;;;3.10;99.90;;;;;;4988314;28;20181;-79
2022/01/27 08:14:18;;;;;;;18.87;10.27;;;3.20;99.90;;;;;;4988649;28;20188;-78
2022/01/27 08:16:43;;;;;;;24.93;12.50;;;3.10;99.90;;;;;;4988666;28;20675;-78
2022/01/27 08:19:09;;;;;;;22.67;11.07;;;3.10;99.90;;;;;;4984953;28;20551;-78
2022/01/27 08:21:35;;;;;;;19.77;11.00;;;3.20;99.90;;;;;;4973099;28;20196;-78
2022/01/27 08:24:01;;;;;;;20.00;11.10;;;3.10;99.90;;;;;;4992961;28;20192;-77
2022/01/27 08:26:38;;;;;;;21.70;10.57;;;3.10;99.90;;;;;;4991569;28;20212;-76
2022/01/27 08:29:19;;;;;;;20.03;10.53;;;3.20;99.90;;;;;;4973469;28;20299;-76
2022/01/27 08:32:01;;;;;;;20.13;10.63;;;3.20;99.90;;;;;;4989160;28;20218;-76
2022/01/27 08:34:35;;;;;;;19.13;10.20;;;3.20;99.90;;;;;;4989646;28;20184;-78
2022/01/27 08:37:09;;;;;;;16.93;10.20;;;3.20;99.90;;;;;;4974492;28;20215;-78
2022/01/27 08:39:35;;;;;;;19.67;10.80;;;3.30;99.90;;;;;;4989044;28;20422;-77
2022/01/27 08:42:01;;;;;;;20.70;10.33;;;3.30;99.90;;;;;;4988238;28;20196;-77
2022/01/27 08:44:27;;;;;;;20.73;11.10;;;3.30;99.90;;;;;;4988086;28;20200;-75
2022/01/27 08:46:53;;;;;;;21.60;10.83;;;3.20;99.90;;;;;;4970668;28;20227;-75
2022/01/27 08:49:21;;;;;;;20.77;10.77;;;3.30;99.90;;;;;;4987854;28;20250;-76
2022/01/27 08:51:47;;;;;;;19.43;10.23;;;3.30;99.90;;;;;;4971275;28;20194;-77
2022/01/27 08:54:13;;;;;;;16.93;10.20;;;3.30;99.90;;;;;;4989376;28;20192;-77
2022/01/27 08:56:39;;;;;;;17.93;9.80;;;3.40;99.90;;;;;;4988961;28;20192;-77
2022/01/27 08:59:05;;;;;;;18.27;10.43;;;3.30;99.90;;;;;;4989831;28;20220;-74
2022/01/27 09:01:31;;;;;;;18.10;9.83;;;3.30;99.90;;;;;;4970933;28;20573;-78
2022/01/27 09:03:56;;;;;;;21.63;10.43;;;3.30;99.90;;;;;;4989095;28;20180;-74
2022/01/27 09:06:22;;;;;;;18.77;10.77;;;3.20;99.90;;;;;;4988351;28;20208;-76
2022/01/27 09:08:49;;;;;;;21.57;10.37;;;3.20;99.90;;;;;;4988582;28;20286;-76
2022/01/27 09:11:15;;;;;;;19.10;9.93;;;3.20;99.90;;;;;;4970047;28;20192;-77
2022/01/27 09:13:42;;;;;;;18.60;9.13;;;3.20;99.90;;;;;;4988811;28;20242;-75
2022/01/27 09:16:08;;;;;;;23.83;11.23;;;3.20;99.90;;;;;;4970079;28;20219;-74
2022/01/27 09:18:34;;;;;;;19.07;10.90;;;3.20;99.90;;;;;;4987431;28;20724;-75
2022/01/27 09:21:04;;;;;;;16.93;9.93;;;3.30;99.90;;;;;;4986985;28;20192;-76
2022/01/27 09:23:29;;;;;;;18.67;9.73;;;3.30;99.90;;;;;;4988353;28;20871;-78
2022/01/27 09:26:02;;;;;;;19.07;10.50;;;3.30;99.90;;;;;;4989010;28;20296;-76
2022/01/27 09:28:27;;;;;;;16.07;8.60;;;3.30;99.90;;;;;;4991942;28;20250;-77
2022/01/27 09:30:53;;;;;;;19.40;10.20;;;3.30;99.90;;;;;;4973522;28;20184;-77
2022/01/27 09:33:19;;;;;;;17.43;9.83;;;3.40;99.90;;;;;;4972218;28;20211;-74
2022/01/27 09:35:45;;;;;;;17.63;9.50;;;3.40;99.90;;;;;;4973041;28;20308;-78
2022/01/27 09:38:11;;;;;;;19.80;10.00;;;3.40;99.90;;;;;;4972418;28;20228;-77
2022/01/27 09:40:37;;;;;;;19.00;9.27;;;3.50;99.90;;;;;;4972354;28;20227;-75
2022/01/27 09:43:04;;;;;;;17.47;9.23;;;3.50;99.90;;;;;;4990514;28;20188;-77
2022/01/27 09:45:35;;;;;;;16.50;9.03;;;3.60;99.90;;;;;;4990900;28;20184;-75
2022/01/27 09:48:11;;;;;;;15.63;9.23;;;3.50;99.90;;;;;;4989343;28;20740;-77
2022/01/27 09:53:03;;;;;;;18.00;9.63;;;3.50;99.90;;;;;;4987993;28;20195;-75
2022/01/27 09:55:28;;;;;;;15.90;8.57;;;3.50;99.90;;;;;;4989143;28;20263;-74
2022/01/27 09:57:54;;;;;;;17.73;9.50;;;3.50;99.90;;;;;;4995798;28;20267;-76
2022/01/27 10:00:21;;;;;;;15.40;9.13;;;3.50;99.90;;;;;;4977132;28;20188;-77
2022/01/27 10:03:09;;;;;;;18.33;9.00;;;3.50;99.90;;;;;;4990542;28;20271;-75
2022/01/27 10:05:36;;;;;;;18.03;9.13;;;3.50;99.90;;;;;;4984196;28;20195;-76
2022/01/27 10:08:16;;;;;;;17.27;8.83;;;3.50;99.90;;;;;;4984401;28;20597;-78
2022/01/27 10:10:44;;;;;;;13.77;7.57;;;3.50;99.90;;;;;;4967498;28;20581;-76
2022/01/27 10:13:25;;;;;;;16.13;8.60;;;3.40;99.90;;;;;;4985412;28;20243;-76
2022/01/27 10:15:51;;;;;;;15.40;8.03;;;3.50;99.90;;;;;;4982361;28;20203;-76
2022/01/27 10:18:18;;;;;;;13.70;7.67;;;3.60;99.90;;;;;;4985503;28;20619;-76
2022/01/27 10:21:01;;;;;;;16.00;8.17;;;3.60;99.90;;;;;;4968784;28;20192;-78
2022/01/27 10:23:31;;;;;;;14.97;8.20;;;3.60;99.90;;;;;;4970438;28;20191;-73
2022/01/27 10:26:13;;;;;;;14.43;7.60;;;3.70;99.90;;;;;;4969825;28;20223;-75
2022/01/27 10:28:48;;;;;;;16.90;8.87;;;3.70;99.90;;;;;;4987766;28;20350;-77
2022/01/27 10:31:23;;;;;;;14.73;7.53;;;3.60;99.90;;;;;;4990486;28;20243;-75
2022/01/27 10:33:58;;;;;;;14.70;7.90;;;3.70;99.90;;;;;;4995417;28;20226;-75
2022/01/27 10:36:24;;;;;;;16.27;9.13;;;3.80;99.90;;;;;;4985171;28;20231;-77
2022/01/27 10:38:52;;;;;;;13.20;7.23;;;3.80;99.90;;;;;;4985689;28;20327;-75
2022/01/27 10:41:18;;;;;;;13.80;7.40;;;3.80;99.90;;;;;;4964649;28;20412;-77
2022/01/27 10:43:44;;;;;;;14.13;7.30;;;3.80;99.90;;;;;;4970596;28;20246;-76
2022/01/27 10:46:20;;;;;;;13.50;7.17;;;3.80;99.90;;;;;;4967367;28;20223;-78
2022/01/27 10:48:53;;;;;;;18.47;10.40;;;3.90;99.90;;;;;;4965781;28;20215;-75
2022/01/27 10:51:25;;;;;;;13.63;7.80;;;3.90;99.90;;;;;;4984462;28;20275;-78
2022/01/27 10:54:18;;;;;;;12.87;7.63;;;3.90;99.90;;;;;;4984243;28;20184;-77
2022/01/27 10:56:44;;;;;;;12.37;6.57;;;3.90;99.90;;;;;;4984461;28;20210;-73
2022/01/27 10:59:18;;;;;;;11.27;6.30;;;3.90;99.90;;;;;;4984706;28;20274;-76
2022/01/27 11:01:51;;;;;;;13.37;7.30;;;3.90;99.90;;;;;;4985148;28;20203;-78
2022/01/27 11:04:19;;;;;;;9.70;6.17;;;3.90;99.90;;;;;;4985078;28;20195;-74
2022/01/27 11:06:54;;;;;;;15.30;7.40;;;4.00;99.90;;;;;;4982465;28;20686;-75
2022/01/27 11:09:20;;;;;;;10.10;5.80;;;4.00;99.90;;;;;;4969686;28;20184;-79
2022/01/27 11:11:48;;;;;;;10.10;5.80;;;4.00;99.90;;;;;;4968687;28;20177;-77
2022/01/27 11:14:14;;;;;;;9.00;5.00;;;4.00;99.90;;;;;;4986328;28;20184;-78
2022/01/27 11:16:43;;;;;;;10.03;5.47;;;3.90;99.90;;;;;;4986736;28;20814;-78
2022/01/27 11:22:01;;;;;;;8.60;4.97;;;4.00;99.90;;;;;;4986657;28;20258;-75
2022/01/27 11:25:09;;;;;;;9.53;5.00;;;4.10;99.90;;;;;;4986922;28;20180;-76
2022/01/27 11:27:38;;;;;;;8.53;4.97;;;4.00;99.90;;;;;;4988156;28;20246;-80
2022/01/27 11:30:11;;;;;;;6.93;4.67;;;4.10;99.90;;;;;;4986895;28;20184;-78
2022/01/27 11:32:45;;;;;;;9.27;4.93;;;4.10;99.90;;;;;;4986988;28;20169;-78
2022/01/27 11:35:23;;;;;;;9.70;5.73;;;4.10;99.90;;;;;;4986405;28;20194;-74
2022/01/27 11:37:53;;;;;;;7.63;4.73;;;4.20;99.90;;;;;;4986372;28;20239;-77
2022/01/27 11:40:20;;;;;;;9.10;4.97;;;4.10;99.90;;;;;;4986745;28;20877;-76
2022/01/27 11:42:55;;;;;;;7.77;4.70;;;4.20;99.90;;;;;;4987164;28;20184;-77
2022/01/27 11:45:20;;;;;;;6.97;4.43;;;4.20;99.90;;;;;;4987911;28;20222;-76
2022/01/27 11:48:18;;;;;;;7.73;4.43;;;4.20;99.90;;;;;;4989158;28;20212;-79
2022/01/27 11:50:51;;;;;;;6.30;3.90;;;4.20;99.90;;;;;;4981203;28;20611;-76
2022/01/27 11:53:34;;;;;;;6.77;4.50;;;4.20;99.90;;;;;;4983432;28;20192;-77
2022/01/27 11:56:06;;;;;;;5.80;4.13;;;4.30;99.90;;;;;;4969117;28;20769;-76
2022/01/27 11:58:48;;;;;;;8.20;4.63;;;4.30;99.90;;;;;;4988074;28;20216;-75
2022/01/27 12:01:21;;;;;;;6.67;3.90;;;4.30;99.90;;;;;;4988602;28;20176;-77
2022/01/27 12:04:08;;;;;;;7.93;4.17;;;4.30;99.90;;;;;;4969882;28;20184;-74
2022/01/27 12:06:34;;;;;;;7.13;4.20;;;4.30;99.90;;;;;;4984203;28;20204;-77
2022/01/27 12:09:27;;;;;;;6.27;3.90;;;4.30;99.90;;;;;;4985279;28;20468;-77
2022/01/27 12:11:55;;;;;;;6.63;4.27;;;4.40;99.90;;;;;;4969176;28;20188;-75
2022/01/27 12:14:28;;;;;;;6.63;4.03;;;4.40;99.90;;;;;;4990566;28;20199;-77
2022/01/27 12:17:09;;;;;;;6.03;3.60;;;4.50;99.90;;;;;;4987059;28;20202;-78
2022/01/27 12:19:56;;;;;;;6.70;4.50;;;4.50;99.90;;;;;;4988768;28;20440;-76
2022/01/27 12:22:26;;;;;;;7.33;4.50;;;4.50;99.90;;;;;;4988784;28;20180;-74
2022/01/27 12:24:53;;;;;;;5.87;3.93;;;4.50;99.90;;;;;;4989642;28;20487;-78
2022/01/27 12:27:20;;;;;;;7.07;4.50;;;4.50;99.90;;;;;;4988897;28;20208;-76
2022/01/27 12:29:51;;;;;;;5.77;3.80;;;4.50;99.90;;;;;;4971044;28;20291;-75
2022/01/27 12:32:17;;;;;;;6.13;4.00;;;4.50;99.90;;;;;;4972416;28;20777;-75
2022/01/27 12:34:52;;;;;;;6.60;4.40;;;4.50;99.90;;;;;;4988879;28;20176;-78
2022/01/27 12:37:21;;;;;;;6.17;3.80;;;4.50;99.90;;;;;;4989514;28;20237;-78
2022/01/27 12:39:55;;;;;;;7.47;4.23;;;4.50;99.90;;;;;;4990241;28;20660;-76
2022/01/27 12:42:31;;;;;;;7.43;4.33;;;4.40;99.90;;;;;;4989524;28;20215;-74
2022/01/27 12:45:13;;;;;;;6.97;4.17;;;4.50;99.90;;;;;;4989736;28;20243;-78
2022/01/27 12:47:49;;;;;;;6.33;3.80;;;4.50;99.90;;;;;;4988278;28;20208;-78
2022/01/27 12:50:20;;;;;;;5.03;4.10;;;4.50;99.90;;;;;;4968018;28;20184;-79
2022/01/27 12:52:47;;;;;;;6.80;4.23;;;4.60;99.90;;;;;;4989216;28;20185;-75
2022/01/27 12:55:18;;;;;;;5.97;4.10;;;4.60;99.90;;;;;;4987698;28;20847;-75
2022/01/27 12:57:53;;;;;;;7.10;4.43;;;4.60;99.90;;;;;;4971830;28;20298;-77
2022/01/27 13:00:18;;;;;;;5.67;3.37;;;4.60;99.90;;;;;;4988470;28;20263;-78
2022/01/27 13:02:44;;;;;;;5.40;3.67;;;4.70;99.90;;;;;;4989420;28;20770;-75
2022/01/27 13:05:10;;;;;;;5.23;3.23;;;4.70;99.90;;;;;;4989024;28;20184;-74
2022/01/27 13:07:41;;;;;;;4.83;3.57;;;4.80;99.90;;;;;;4988419;28;20216;-77
2022/01/27 13:10:14;;;;;;;5.17;3.57;;;4.90;99.90;;;;;;4988999;28;20270;-78
2022/01/27 13:12:47;;;;;;;4.07;3.07;;;4.90;99.90;;;;;;4988832;28;20211;-76
2022/01/27 13:15:17;;;;;;;4.20;3.17;;;4.90;99.90;;;;;;4988549;28;20203;-75
2022/01/27 13:20:16;;;;;;;3.93;3.20;;;5.10;99.90;;;;;;4990192;28;20630;-77
2022/01/27 13:23:15;;;;;;;4.27;2.70;;;5.10;99.90;;;;;;4987199;28;20184;-78
2022/01/27 13:25:53;;;;;;;3.50;2.73;;;5.20;99.90;;;;;;4988767;28;20286;-78
2022/01/27 13:28:26;;;;;;;5.07;3.00;;;5.30;99.90;;;;;;4988256;28;20215;-76
2022/01/27 13:30:54;;;;;;;4.60;3.53;;;5.50;99.90;;;;;;4988009;28;20265;-79
2022/01/27 13:33:25;;;;;;;3.90;3.20;;;5.60;99.90;;;;;;4987622;28;20184;-80
2022/01/27 13:35:52;;;;;;;5.73;3.50;;;5.70;99.90;;;;;;4987319;28;20345;-76
2022/01/27 13:41:22;;;;;;;4.67;3.60;;;5.80;99.90;;;;;;4988238;28;20948;-77